sensor_id;sensor_type;location;lat;lon;timestamp;pressure;altitude;pressure_sealevel;temperature;humidity
60228;BME280;46091;46.512;6.626;2022-08-21T09:00:43;96908.56;;;22.20;72.01
60228;BME280;46091;46.512;6.626;2022-08-21T09:02:50;96908.13;;;22.48;71.41
60228;BME280;46091;46.512;6.626;2022-08-21T09:04:55;96908.72;;;22.71;70.78
60228;BME280;46091;46.512;6.626;2022-08-21T09:07:08;96907.66;;;22.87;70.39
60228;BME280;46091;46.512;6.626;2022-08-21T09:09:24;96902.31;;;23.02;70.59
60228;BME280;46091;46.512;6.626;2022-08-21T09:11:32;96906.34;;;23.15;69.70
60228;BME280;46091;46.512;6.626;2022-08-21T09:13:46;96908.75;;;23.27;69.55
60228;BME280;46091;46.512;6.626;2022-08-21T09:15:57;96906.06;;;23.37;69.43
60228;BME280;46091;46.512;6.626;2022-08-21T09:18:19;96898.75;;;23.42;69.31
60228;BME280;46091;46.512;6.626;2022-08-21T09:20:32;96897.41;;;23.45;68.97
60228;BME280;46091;46.512;6.626;2022-08-21T09:22:55;96899.00;;;23.51;68.66
60228;BME280;46091;46.512;6.626;2022-08-21T09:25:08;96894.13;;;23.53;68.37
60228;BME280;46091;46.512;6.626;2022-08-21T09:27:16;96898.16;;;23.56;68.00
60228;BME280;46091;46.512;6.626;2022-08-21T09:29:22;96888.50;;;23.60;68.37
60228;BME280;46091;46.512;6.626;2022-08-21T09:31:30;96894.97;;;23.64;68.12
60228;BME280;46091;46.512;6.626;2022-08-21T09:33:34;96894.69;;;23.70;67.84
60228;BME280;46091;46.512;6.626;2022-08-21T09:35:48;96897.91;;;23.72;67.77
60228;BME280;46091;46.512;6.626;2022-08-21T09:37:55;96897.34;;;23.75;67.60
60228;BME280;46091;46.512;6.626;2022-08-21T09:39:58;96889.78;;;23.77;67.27
60228;BME280;46091;46.512;6.626;2022-08-21T09:42:04;96888.97;;;23.82;67.32
60228;BME280;46091;46.512;6.626;2022-08-21T09:44:08;96894.09;;;23.84;67.24
60228;BME280;46091;46.512;6.626;2022-08-21T09:46:20;96885.72;;;23.85;67.02
60228;BME280;46091;46.512;6.626;2022-08-21T09:48:25;96883.25;;;23.89;66.56
60228;BME280;46091;46.512;6.626;2022-08-21T09:50:33;96883.81;;;23.91;66.51
60228;BME280;46091;46.512;6.626;2022-08-21T09:52:43;96878.66;;;23.94;66.84
60228;BME280;46091;46.512;6.626;2022-08-21T09:54:49;96880.00;;;23.97;66.23
60228;BME280;46091;46.512;6.626;2022-08-21T09:56:55;96874.31;;;23.98;66.40
60228;BME280;46091;46.512;6.626;2022-08-21T09:59:19;96874.03;;;24.00;66.23
60228;BME280;46091;46.512;6.626;2022-08-21T10:01:25;96881.34;;;23.99;66.57
60228;BME280;46091;46.512;6.626;2022-08-21T10:03:30;96874.59;;;24.02;66.33
60228;BME280;46091;46.512;6.626;2022-08-21T10:05:33;96880.81;;;24.02;66.35
60228;BME280;46091;46.512;6.626;2022-08-21T10:07:37;96870.81;;;24.03;65.74
60228;BME280;46091;46.512;6.626;2022-08-21T10:09:41;96867.31;;;24.02;65.83
60228;BME280;46091;46.512;6.626;2022-08-21T10:11:55;96872.41;;;24.04;65.84
60228;BME280;46091;46.512;6.626;2022-08-21T10:14:10;96862.44;;;24.04;65.32
60228;BME280;46091;46.512;6.626;2022-08-21T10:16:25;96860.53;;;24.00;65.55
60228;BME280;46091;46.512;6.626;2022-08-21T10:18:36;96861.63;;;24.04;65.12
60228;BME280;46091;46.512;6.626;2022-08-21T10:20:45;96857.03;;;24.04;65.06
60228;BME280;46091;46.512;6.626;2022-08-21T10:22:58;96852.44;;;24.05;65.05
60228;BME280;46091;46.512;6.626;2022-08-21T10:25:11;96855.66;;;24.07;64.72
60228;BME280;46091;46.512;6.626;2022-08-21T10:27:24;96853.75;;;24.07;64.78
60228;BME280;46091;46.512;6.626;2022-08-21T10:29:43;96854.56;;;24.08;64.64
60228;BME280;46091;46.512;6.626;2022-08-21T10:31:53;96848.06;;;24.09;64.08
60228;BME280;46091;46.512;6.626;2022-08-21T10:34:11;96847.00;;;24.10;63.97
60228;BME280;46091;46.512;6.626;2022-08-21T10:36:22;96841.06;;;24.13;64.08
60228;BME280;46091;46.512;6.626;2022-08-21T10:38:55;96839.97;;;24.14;63.71
60228;BME280;46091;46.512;6.626;2022-08-21T10:41:25;96837.78;;;24.16;63.37
60228;BME280;46091;46.512;6.626;2022-08-21T10:43:33;96834.00;;;24.17;63.60
60228;BME280;46091;46.512;6.626;2022-08-21T10:45:48;96835.09;;;24.16;63.28
60228;BME280;46091;46.512;6.626;2022-08-21T10:48:00;96826.69;;;24.18;63.11
60228;BME280;46091;46.512;6.626;2022-08-21T10:50:15;96827.50;;;24.18;63.21
60228;BME280;46091;46.512;6.626;2022-08-21T10:52:50;96821.81;;;24.20;62.91
60228;BME280;46091;46.512;6.626;2022-08-21T10:55:00;96824.25;;;24.21;62.68
60228;BME280;46091;46.512;6.626;2022-08-21T10:57:12;96817.50;;;24.24;62.72
60228;BME280;46091;46.512;6.626;2022-08-21T10:59:38;96820.44;;;24.27;62.45
60228;BME280;46091;46.512;6.626;2022-08-21T11:01:46;96820.44;;;24.27;62.35
60228;BME280;46091;46.512;6.626;2022-08-21T11:04:11;96815.84;;;24.28;62.49
60228;BME280;46091;46.512;6.626;2022-08-21T11:06:19;96817.19;;;24.30;62.43
60228;BME280;46091;46.512;6.626;2022-08-21T11:08:26;96814.22;;;24.32;62.05
60228;BME280;46091;46.512;6.626;2022-08-21T11:10:36;96811.22;;;24.33;61.92
60228;BME280;46091;46.512;6.626;2022-08-21T11:12:54;96805.00;;;24.38;61.97
60228;BME280;46091;46.512;6.626;2022-08-21T11:15:03;96807.13;;;24.41;61.50
60228;BME280;46091;46.512;6.626;2022-08-21T11:17:09;96808.47;;;24.44;61.31
60228;BME280;46091;46.512;6.626;2022-08-21T11:19:17;96801.97;;;24.45;61.35
60228;BME280;46091;46.512;6.626;2022-08-21T11:21:36;96803.03;;;24.49;61.34
60228;BME280;46091;46.512;6.626;2022-08-21T11:23:45;96807.88;;;24.52;61.40
60228;BME280;46091;46.512;6.626;2022-08-21T11:25:53;96804.06;;;24.53;60.86
60228;BME280;46091;46.512;6.626;2022-08-21T11:28:01;96805.69;;;24.54;60.90
60228;BME280;46091;46.512;6.626;2022-08-21T11:30:06;96800.28;;;24.54;60.86
60228;BME280;46091;46.512;6.626;2022-08-21T11:32:37;96793.78;;;24.55;60.79
60228;BME280;46091;46.512;6.626;2022-08-21T11:34:54;96795.09;;;24.57;60.40
60228;BME280;46091;46.512;6.626;2022-08-21T11:37:09;96793.75;;;24.60;60.76
60228;BME280;46091;46.512;6.626;2022-08-21T11:39:22;96796.97;;;24.62;60.31
60228;BME280;46091;46.512;6.626;2022-08-21T11:41:29;96790.75;;;24.61;60.30
60228;BME280;46091;46.512;6.626;2022-08-21T11:43:37;96787.78;;;24.63;60.09
60228;BME280;46091;46.512;6.626;2022-08-21T11:45:45;96787.78;;;24.63;60.25
60228;BME280;46091;46.512;6.626;2022-08-21T11:47:56;96780.19;;;24.65;59.95
60228;BME280;46091;46.512;6.626;2022-08-21T11:50:12;96789.38;;;24.69;60.15
60228;BME280;46091;46.512;6.626;2022-08-21T11:52:38;96779.06;;;24.71;60.01
60228;BME280;46091;46.512;6.626;2022-08-21T11:54:46;96775.28;;;24.72;59.97
60228;BME280;46091;46.512;6.626;2022-08-21T11:56:55;96775.72;;;24.79;59.53
60228;BME280;46091;46.512;6.626;2022-08-21T11:59:04;96768.16;;;24.81;59.89
60228;BME280;46091;46.512;6.626;2022-08-21T12:01:11;96768.69;;;24.83;59.93
60228;BME280;46091;46.512;6.626;2022-08-21T12:03:22;96771.91;;;24.85;59.37
60228;BME280;46091;46.512;6.626;2022-08-21T12:05:30;96777.81;;;24.87;59.46
60228;BME280;46091;46.512;6.626;2022-08-21T12:07:38;96774.84;;;24.89;59.27
60228;BME280;46091;46.512;6.626;2022-08-21T12:09:52;96773.44;;;24.91;59.22
60228;BME280;46091;46.512;6.626;2022-08-21T12:12:02;96776.69;;;24.93;59.13
60228;BME280;46091;46.512;6.626;2022-08-21T12:14:15;96769.63;;;24.97;59.03
60228;BME280;46091;46.512;6.626;2022-08-21T12:16:29;96764.72;;;25.00;59.22
60228;BME280;46091;46.512;6.626;2022-08-21T12:18:33;96769.59;;;25.03;58.88
60228;BME280;46091;46.512;6.626;2022-08-21T12:20:42;96757.97;;;25.02;59.20
60228;BME280;46091;46.512;6.626;2022-08-21T12:22:54;96760.41;;;25.04;59.22
60228;BME280;46091;46.512;6.626;2022-08-21T12:25:06;96750.09;;;25.06;58.86
60228;BME280;46091;46.512;6.626;2022-08-21T12:27:20;96750.09;;;25.06;58.82
60228;BME280;46091;46.512;6.626;2022-08-21T12:29:28;96749.00;;;25.07;58.99
60228;BME280;46091;46.512;6.626;2022-08-21T12:31:33;96750.63;;;25.08;58.90
60228;BME280;46091;46.512;6.626;2022-08-21T12:33:38;96752.44;;;25.12;58.50
60228;BME280;46091;46.512;6.626;2022-08-21T12:35:43;96751.09;;;25.15;58.57
60228;BME280;46091;46.512;6.626;2022-08-21T12:37:49;96757.53;;;25.19;58.44
60228;BME280;46091;46.512;6.626;2022-08-21T12:39:58;96759.13;;;25.20;58.29
60228;BME280;46091;46.512;6.626;2022-08-21T12:42:06;96745.63;;;25.20;58.14
60228;BME280;46091;46.512;6.626;2022-08-21T12:44:14;96748.84;;;25.22;57.71
60228;BME280;46091;46.512;6.626;2022-08-21T12:46:24;96746.63;;;25.24;57.69
60228;BME280;46091;46.512;6.626;2022-08-21T12:48:33;96749.88;;;25.26;57.75
60228;BME280;46091;46.512;6.626;2022-08-21T12:50:41;96745.00;;;25.28;57.46
60228;BME280;46091;46.512;6.626;2022-08-21T12:52:55;96739.28;;;25.30;57.67
60228;BME280;46091;46.512;6.626;2022-08-21T12:55:03;96748.22;;;25.30;57.61
60228;BME280;46091;46.512;6.626;2022-08-21T12:57:07;96759.03;;;25.30;57.61
60228;BME280;46091;46.512;6.626;2022-08-21T12:59:12;96745.72;;;25.34;56.96
60228;BME280;46091;46.512;6.626;2022-08-21T13:01:21;96750.84;;;25.35;57.05
60228;BME280;46091;46.512;6.626;2022-08-21T13:03:26;96743.25;;;25.37;57.04
60228;BME280;46091;46.512;6.626;2022-08-21T13:05:32;96737.25;;;25.40;57.03
60228;BME280;46091;46.512;6.626;2022-08-21T13:07:36;96740.47;;;25.42;56.65
60228;BME280;46091;46.512;6.626;2022-08-21T13:09:43;96740.47;;;25.42;56.69
60228;BME280;46091;46.512;6.626;2022-08-21T13:11:49;96737.19;;;25.45;56.60
60228;BME280;46091;46.512;6.626;2022-08-21T13:13:53;96728.50;;;25.48;56.76
60228;BME280;46091;46.512;6.626;2022-08-21T13:16:04;96733.94;;;25.48;56.69
60228;BME280;46091;46.512;6.626;2022-08-21T13:18:20;96727.94;;;25.51;56.63
60228;BME280;46091;46.512;6.626;2022-08-21T13:20:28;96726.81;;;25.52;56.23
60228;BME280;46091;46.512;6.626;2022-08-21T13:22:32;96723.81;;;25.54;56.53
60228;BME280;46091;46.512;6.626;2022-08-21T13:24:38;96720.81;;;25.55;56.40
60228;BME280;46091;46.512;6.626;2022-08-21T13:26:44;96713.50;;;25.56;56.24
60228;BME280;46091;46.512;6.626;2022-08-21T13:28:49;96722.13;;;25.58;56.04
60228;BME280;46091;46.512;6.626;2022-08-21T13:30:54;96724.59;;;25.60;55.84
60228;BME280;46091;46.512;6.626;2022-08-21T13:32:59;96721.56;;;25.61;55.80
60228;BME280;46091;46.512;6.626;2022-08-21T13:35:09;96718.56;;;25.63;55.66
60228;BME280;46091;46.512;6.626;2022-08-21T13:37:13;96712.06;;;25.64;55.72
60228;BME280;46091;46.512;6.626;2022-08-21T13:39:18;96709.34;;;25.64;55.81
60228;BME280;46091;46.512;6.626;2022-08-21T13:41:24;96721.50;;;25.66;55.49
60228;BME280;46091;46.512;6.626;2022-08-21T13:43:31;96715.78;;;25.68;55.52
60228;BME280;46091;46.512;6.626;2022-08-21T13:45:36;96726.63;;;25.68;55.38
60228;BME280;46091;46.512;6.626;2022-08-21T13:47:41;96723.41;;;25.66;55.06
60228;BME280;46091;46.512;6.626;2022-08-21T13:49:46;96715.56;;;25.64;55.25
60228;BME280;46091;46.512;6.626;2022-08-21T13:51:50;96715.56;;;25.64;54.85
60228;BME280;46091;46.512;6.626;2022-08-21T13:53:53;96703.34;;;25.67;54.79
60228;BME280;46091;46.512;6.626;2022-08-21T13:55:58;96706.56;;;25.69;54.70
60228;BME280;46091;46.512;6.626;2022-08-21T13:58:03;96708.22;;;25.70;54.66
60228;BME280;46091;46.512;6.626;2022-08-21T14:00:13;96698.97;;;25.71;54.56
60228;BME280;46091;46.512;6.626;2022-08-21T14:02:19;96698.72;;;25.72;54.25
60228;BME280;46091;46.512;6.626;2022-08-21T14:04:29;96699.22;;;25.74;54.02
60228;BME280;46091;46.512;6.626;2022-08-21T14:06:36;96697.31;;;25.75;54.22
60228;BME280;46091;46.512;6.626;2022-08-21T14:08:39;96705.75;;;25.73;54.17
60228;BME280;46091;46.512;6.626;2022-08-21T14:10:47;96701.69;;;25.71;54.04
60228;BME280;46091;46.512;6.626;2022-08-21T14:13:01;96698.97;;;25.71;54.03
60228;BME280;46091;46.512;6.626;2022-08-21T14:15:06;96700.09;;;25.70;53.81
60228;BME280;46091;46.512;6.626;2022-08-21T14:17:12;96698.97;;;25.71;53.84
60228;BME280;46091;46.512;6.626;2022-08-21T14:19:41;96700.53;;;25.77;53.53
60228;BME280;46091;46.512;6.626;2022-08-21T14:21:45;96699.66;;;25.81;53.36
60228;BME280;46091;46.512;6.626;2022-08-21T14:23:59;96691.75;;;25.85;53.10
60228;BME280;46091;46.512;6.626;2022-08-21T14:26:05;96694.47;;;25.85;53.00
60228;BME280;46091;46.512;6.626;2022-08-21T14:28:17;96686.50;;;25.94;52.46
60228;BME280;46091;46.512;6.626;2022-08-21T14:30:28;96683.91;;;26.02;51.75
60228;BME280;46091;46.512;6.626;2022-08-21T14:32:37;96692.47;;;26.09;51.75
60228;BME280;46091;46.512;6.626;2022-08-21T14:34:46;96692.78;;;26.08;51.41
60228;BME280;46091;46.512;6.626;2022-08-21T14:36:50;96696.59;;;26.07;51.63
60228;BME280;46091;46.512;6.626;2022-08-21T14:38:53;96689.03;;;26.04;51.51
60228;BME280;46091;46.512;6.626;2022-08-21T14:40:58;96685.50;;;26.03;51.62
60228;BME280;46091;46.512;6.626;2022-08-21T14:43:05;96690.13;;;26.03;51.79
60228;BME280;46091;46.512;6.626;2022-08-21T14:45:17;96687.13;;;26.04;51.68
60228;BME280;46091;46.512;6.626;2022-08-21T14:47:25;96690.94;;;26.03;51.59
60228;BME280;46091;46.512;6.626;2022-08-21T14:49:30;96683.91;;;26.02;51.51
60228;BME280;46091;46.512;6.626;2022-08-21T14:51:34;96685.50;;;26.03;51.50
60228;BME280;46091;46.512;6.626;2022-08-21T14:53:54;96678.72;;;26.06;51.50
60228;BME280;46091;46.512;6.626;2022-08-21T14:55:57;96673.31;;;26.06;51.49
60228;BME280;46091;46.512;6.626;2022-08-21T14:58:09;96687.13;;;26.04;51.31
60228;BME280;46091;46.512;6.626;2022-08-21T15:00:15;96674.09;;;26.06;51.03
60228;BME280;46091;46.512;6.626;2022-08-21T15:02:19;96676.50;;;26.08;50.80
60228;BME280;46091;46.512;6.626;2022-08-21T15:04:22;96674.09;;;26.06;50.88
60228;BME280;46091;46.512;6.626;2022-08-21T15:06:24;96669.78;;;26.05;50.76
60228;BME280;46091;46.512;6.626;2022-08-21T15:08:29;96667.88;;;26.06;50.72
60228;BME280;46091;46.512;6.626;2022-08-21T15:10:33;96671.09;;;26.08;50.51
60228;BME280;46091;46.512;6.626;2022-08-21T15:12:53;96670.28;;;26.07;50.29
60228;BME280;46091;46.512;6.626;2022-08-21T15:14:56;96673.06;;;26.02;50.39
60228;BME280;46091;46.512;6.626;2022-08-21T15:16:58;96663.34;;;26.01;50.39
60228;BME280;46091;46.512;6.626;2022-08-21T15:19:02;96671.47;;;26.01;50.46
60228;BME280;46091;46.512;6.626;2022-08-21T15:21:05;96662.03;;;25.99;50.41
60228;BME280;46091;46.512;6.626;2022-08-21T15:23:08;96665.03;;;25.97;50.27
60228;BME280;46091;46.512;6.626;2022-08-21T15:25:16;96664.22;;;25.97;49.91
60228;BME280;46091;46.512;6.626;2022-08-21T15:27:19;96653.16;;;25.93;49.83
60228;BME280;46091;46.512;6.626;2022-08-21T15:29:22;96657.28;;;25.91;49.99
60228;BME280;46091;46.512;6.626;2022-08-21T15:31:34;96659.69;;;25.92;49.80
60228;BME280;46091;46.512;6.626;2022-08-21T15:33:37;96657.50;;;25.94;49.77
60228;BME280;46091;46.512;6.626;2022-08-21T15:35:40;96647.75;;;25.93;50.07
60228;BME280;46091;46.512;6.626;2022-08-21T15:37:43;96650.75;;;25.92;49.99
60228;BME280;46091;46.512;6.626;2022-08-21T15:39:46;96652.66;;;25.91;50.05
60228;BME280;46091;46.512;6.626;2022-08-21T15:41:56;96642.94;;;25.90;49.96
60228;BME280;46091;46.512;6.626;2022-08-21T15:43:59;96631.28;;;25.90;49.95
60228;BME280;46091;46.512;6.626;2022-08-21T15:46:01;96635.91;;;25.89;49.57
60228;BME280;46091;46.512;6.626;2022-08-21T15:48:06;96637.50;;;25.90;49.34
60228;BME280;46091;46.512;6.626;2022-08-21T15:50:10;96642.31;;;25.93;49.34
60228;BME280;46091;46.512;6.626;2022-08-21T15:52:13;96639.63;;;25.93;48.96
60228;BME280;46091;46.512;6.626;2022-08-21T15:54:16;96635.84;;;25.94;49.12
60228;BME280;46091;46.512;6.626;2022-08-21T15:56:22;96637.94;;;25.97;48.47
60228;BME280;46091;46.512;6.626;2022-08-21T15:58:27;96637.34;;;26.00;48.64
60228;BME280;46091;46.512;6.626;2022-08-21T16:00:31;96642.69;;;26.05;47.96
60228;BME280;46091;46.512;6.626;2022-08-21T16:02:34;96638.78;;;26.11;47.91
60228;BME280;46091;46.512;6.626;2022-08-21T16:04:38;96634.97;;;26.12;47.75
60228;BME280;46091;46.512;6.626;2022-08-21T16:06:41;96633.22;;;26.22;47.40
60228;BME280;46091;46.512;6.626;2022-08-21T16:08:57;96635.16;;;26.35;47.06
60228;BME280;46091;46.512;6.626;2022-08-21T16:11:01;96635.69;;;26.37;46.71
60228;BME280;46091;46.512;6.626;2022-08-21T16:13:07;96644.34;;;26.39;46.70
60228;BME280;46091;46.512;6.626;2022-08-21T16:15:16;96634.50;;;26.43;46.57
60228;BME280;46091;46.512;6.626;2022-08-21T16:17:24;96637.72;;;26.45;46.70
60228;BME280;46091;46.512;6.626;2022-08-21T16:19:29;96631.97;;;26.47;46.52
60228;BME280;46091;46.512;6.626;2022-08-21T16:21:32;96638.72;;;26.49;46.46
60228;BME280;46091;46.512;6.626;2022-08-21T16:23:35;96635.41;;;26.52;46.30
60228;BME280;46091;46.512;6.626;2022-08-21T16:25:40;96628.59;;;26.55;46.18
60228;BME280;46091;46.512;6.626;2022-08-21T16:27:46;96640.72;;;26.57;46.11
60228;BME280;46091;46.512;6.626;2022-08-21T16:29:51;96628.78;;;26.58;45.86
60228;BME280;46091;46.512;6.626;2022-08-21T16:31:55;96630.19;;;26.56;45.99
60228;BME280;46091;46.512;6.626;2022-08-21T16:33:59;96634.31;;;26.53;45.90
60228;BME280;46091;46.512;6.626;2022-08-21T16:36:04;96630.00;;;26.52;45.84
60228;BME280;46091;46.512;6.626;2022-08-21T16:38:07;96628.91;;;26.53;45.85
60228;BME280;46091;46.512;6.626;2022-08-21T16:40:11;96626.19;;;26.53;45.59
60228;BME280;46091;46.512;6.626;2022-08-21T16:42:17;96632.72;;;26.52;45.41
60228;BME280;46091;46.512;6.626;2022-08-21T16:44:23;96639.31;;;26.60;45.25
60228;BME280;46091;46.512;6.626;2022-08-21T16:46:33;96629.91;;;26.57;45.26
60228;BME280;46091;46.512;6.626;2022-08-21T16:48:38;96628.28;;;26.56;45.24
60228;BME280;46091;46.512;6.626;2022-08-21T16:50:41;96631.31;;;26.55;45.27
60228;BME280;46091;46.512;6.626;2022-08-21T16:52:51;96627.00;;;26.54;44.99
60228;BME280;46091;46.512;6.626;2022-08-21T16:54:54;96634.00;;;26.55;45.24
60228;BME280;46091;46.512;6.626;2022-08-21T16:56:58;96623.97;;;26.55;45.10
60228;BME280;46091;46.512;6.626;2022-08-21T16:59:03;96632.09;;;26.55;44.95
60228;BME280;46091;46.512;6.626;2022-08-21T17:01:09;96631.00;;;26.56;44.89
60228;BME280;46091;46.512;6.626;2022-08-21T17:03:14;96626.88;;;26.59;44.79
60228;BME280;46091;46.512;6.626;2022-08-21T17:05:21;96633.91;;;26.60;44.97
60228;BME280;46091;46.512;6.626;2022-08-21T17:07:24;96630.38;;;26.59;45.00
60228;BME280;46091;46.512;6.626;2022-08-21T17:09:27;96634.22;;;26.58;44.84
60228;BME280;46091;46.512;6.626;2022-08-21T17:11:31;96637.22;;;26.57;44.69
60228;BME280;46091;46.512;6.626;2022-08-21T17:13:38;96635.13;;;26.54;44.78
60228;BME280;46091;46.512;6.626;2022-08-21T17:15:42;96638.13;;;26.52;45.01
60228;BME280;46091;46.512;6.626;2022-08-21T17:17:45;96627.28;;;26.52;44.88
60228;BME280;46091;46.512;6.626;2022-08-21T17:19:47;96632.19;;;26.50;44.69
60228;BME280;46091;46.512;6.626;2022-08-21T17:21:52;96630.06;;;26.47;44.77
60228;BME280;46091;46.512;6.626;2022-08-21T17:23:54;96631.19;;;26.46;44.96
60228;BME280;46091;46.512;6.626;2022-08-21T17:25:57;96625.25;;;26.44;44.78
60228;BME280;46091;46.512;6.626;2022-08-21T17:28:02;96631.78;;;26.43;44.91
60228;BME280;46091;46.512;6.626;2022-08-21T17:30:06;96629.38;;;26.42;44.73
60228;BME280;46091;46.512;6.626;2022-08-21T17:32:11;96635.91;;;26.40;44.90
60228;BME280;46091;46.512;6.626;2022-08-21T17:34:14;96631.88;;;26.38;45.04
60228;BME280;46091;46.512;6.626;2022-08-21T17:36:17;96638.66;;;26.35;44.94
60228;BME280;46091;46.512;6.626;2022-08-21T17:38:22;96633.53;;;26.34;44.78
60228;BME280;46091;46.512;6.626;2022-08-21T17:40:28;96639.25;;;26.32;44.78
60228;BME280;46091;46.512;6.626;2022-08-21T17:42:38;96637.34;;;26.33;44.99
60228;BME280;46091;46.512;6.626;2022-08-21T17:44:43;96639.06;;;26.29;44.90
60228;BME280;46091;46.512;6.626;2022-08-21T17:46:47;96642.03;;;26.27;44.99
60228;BME280;46091;46.512;6.626;2022-08-21T17:48:50;96636.91;;;26.26;44.94
60228;BME280;46091;46.512;6.626;2022-08-21T17:50:53;96641.84;;;26.24;45.29
60228;BME280;46091;46.512;6.626;2022-08-21T17:52:56;96640.22;;;26.23;45.13
60228;BME280;46091;46.512;6.626;2022-08-21T17:55:01;96641.63;;;26.20;44.93
60228;BME280;46091;46.512;6.626;2022-08-21T17:57:04;96642.75;;;26.19;45.07
60228;BME280;46091;46.512;6.626;2022-08-21T17:59:09;96649.25;;;26.18;45.06
60228;BME280;46091;46.512;6.626;2022-08-21T18:01:12;96650.38;;;26.17;45.23
60228;BME280;46091;46.512;6.626;2022-08-21T18:03:19;96645.22;;;26.16;45.27
60228;BME280;46091;46.512;6.626;2022-08-21T18:05:22;96651.75;;;26.15;45.13
60228;BME280;46091;46.512;6.626;2022-08-21T18:07:25;96661.78;;;26.14;45.39
60228;BME280;46091;46.512;6.626;2022-08-21T18:09:33;96659.88;;;26.15;45.32
60228;BME280;46091;46.512;6.626;2022-08-21T18:11:39;96658.25;;;26.13;45.29
60228;BME280;46091;46.512;6.626;2022-08-21T18:13:45;96669.09;;;26.13;45.19
60228;BME280;46091;46.512;6.626;2022-08-21T18:15:49;96657.47;;;26.13;45.51
60228;BME280;46091;46.512;6.626;2022-08-21T18:17:52;96662.06;;;26.12;45.52
60228;BME280;46091;46.512;6.626;2022-08-21T18:19:56;96652.63;;;26.10;45.16
60228;BME280;46091;46.512;6.626;2022-08-21T18:22:00;96664.56;;;26.09;45.25
60228;BME280;46091;46.512;6.626;2022-08-21T18:24:05;96659.47;;;26.07;45.41
60228;BME280;46091;46.512;6.626;2022-08-21T18:26:08;96665.97;;;26.06;45.49
60228;BME280;46091;46.512;6.626;2022-08-21T18:28:13;96661.66;;;26.05;45.43
60228;BME280;46091;46.512;6.626;2022-08-21T18:30:18;96671.97;;;26.03;45.36
60228;BME280;46091;46.512;6.626;2022-08-21T18:32:23;96666.84;;;26.02;45.54
60228;BME280;46091;46.512;6.626;2022-08-21T18:34:34;96675.28;;;26.00;45.48
60228;BME280;46091;46.512;6.626;2022-08-21T18:36:39;96670.97;;;25.99;45.57
60228;BME280;46091;46.512;6.626;2022-08-21T18:38:42;96673.97;;;25.98;45.89
60228;BME280;46091;46.512;6.626;2022-08-21T18:40:49;96678.88;;;25.96;45.65
60228;BME280;46091;46.512;6.626;2022-08-21T18:42:57;96681.34;;;25.92;45.93
60228;BME280;46091;46.512;6.626;2022-08-21T18:45:07;96674.63;;;25.90;45.77
60228;BME280;46091;46.512;6.626;2022-08-21T18:47:12;96673.31;;;25.87;45.92
60228;BME280;46091;46.512;6.626;2022-08-21T18:49:18;96680.94;;;25.85;45.61
60228;BME280;46091;46.512;6.626;2022-08-21T18:51:22;96682.59;;;25.81;45.70
60228;BME280;46091;46.512;6.626;2022-08-21T18:53:26;96687.00;;;25.77;45.39
60228;BME280;46091;46.512;6.626;2022-08-21T18:55:30;96690.81;;;25.76;45.31
60228;BME280;46091;46.512;6.626;2022-08-21T18:57:35;96683.78;;;25.75;45.34
60228;BME280;46091;46.512;6.626;2022-08-21T18:59:38;96692.19;;;25.73;45.24
60228;BME280;46091;46.512;6.626;2022-08-21T19:01:44;96688.16;;;25.71;44.95
60228;BME280;46091;46.512;6.626;2022-08-21T19:03:48;96691.72;;;25.66;44.85
60228;BME280;46091;46.512;6.626;2022-08-21T19:05:52;96692.31;;;25.63;44.66
60228;BME280;46091;46.512;6.626;2022-08-21T19:07:56;96690.47;;;25.59;44.93
60228;BME280;46091;46.512;6.626;2022-08-21T19:09:59;96684.84;;;25.55;44.43
60228;BME280;46091;46.512;6.626;2022-08-21T19:12:23;96687.31;;;25.51;44.54
60228;BME280;46091;46.512;6.626;2022-08-21T19:14:31;96693.84;;;25.50;44.37
60228;BME280;46091;46.512;6.626;2022-08-21T19:16:39;96691.44;;;25.49;44.12
60228;BME280;46091;46.512;6.626;2022-08-21T19:18:49;96697.66;;;25.49;44.09
60228;BME280;46091;46.512;6.626;2022-08-21T19:20:52;96693.59;;;25.47;43.95
60228;BME280;46091;46.512;6.626;2022-08-21T19:22:55;96705.00;;;25.44;43.98
60228;BME280;46091;46.512;6.626;2022-08-21T19:24:58;96704.22;;;25.43;43.94
60228;BME280;46091;46.512;6.626;2022-08-21T19:27:02;96706.41;;;25.41;44.03
60228;BME280;46091;46.512;6.626;2022-08-21T19:29:07;96703.69;;;25.41;43.85
60228;BME280;46091;46.512;6.626;2022-08-21T19:31:14;96706.41;;;25.41;43.93
60228;BME280;46091;46.512;6.626;2022-08-21T19:33:24;96707.00;;;25.38;44.05
60228;BME280;46091;46.512;6.626;2022-08-21T19:35:29;96701.03;;;25.36;43.92
60228;BME280;46091;46.512;6.626;2022-08-21T19:37:32;96698.63;;;25.35;43.48
60228;BME280;46091;46.512;6.626;2022-08-21T19:39:35;96703.53;;;25.33;43.68
60228;BME280;46091;46.512;6.626;2022-08-21T19:41:59;96698.91;;;25.33;43.38
60228;BME280;46091;46.512;6.626;2022-08-21T19:44:05;96698.91;;;25.33;43.43
60228;BME280;46091;46.512;6.626;2022-08-21T19:46:09;96699.72;;;25.34;43.03
60228;BME280;46091;46.512;6.626;2022-08-21T19:48:13;96691.91;;;25.32;43.20
60228;BME280;46091;46.512;6.626;2022-08-21T19:50:19;96699.81;;;25.29;43.02
60228;BME280;46091;46.512;6.626;2022-08-21T19:52:24;96696.28;;;25.28;42.89
60228;BME280;46091;46.512;6.626;2022-08-21T19:54:29;96698.69;;;25.30;42.39
60228;BME280;46091;46.512;6.626;2022-08-21T19:56:33;96699.22;;;25.32;42.72
60228;BME280;46091;46.512;6.626;2022-08-21T19:58:39;96696.50;;;25.32;42.27
60228;BME280;46091;46.512;6.626;2022-08-21T20:00:42;96694.09;;;25.30;42.15
60228;BME280;46091;46.512;6.626;2022-08-21T20:02:45;96689.50;;;25.31;41.97
60228;BME280;46091;46.512;6.626;2022-08-21T20:04:48;96693.28;;;25.30;42.06
60228;BME280;46091;46.512;6.626;2022-08-21T20:07:11;96691.44;;;25.25;42.29
60228;BME280;46091;46.512;6.626;2022-08-21T20:09:16;96687.41;;;25.22;42.18
60228;BME280;46091;46.512;6.626;2022-08-21T20:11:24;96685.00;;;25.21;41.91
60228;BME280;46091;46.512;6.626;2022-08-21T20:13:28;96687.19;;;25.19;41.77
60228;BME280;46091;46.512;6.626;2022-08-21T20:15:34;96685.59;;;25.18;41.95